createdAt,value
2023-04-01T00:01:16.216Z,10.52
2023-04-01T00:03:44.987Z,10.62
2023-04-01T00:06:15.641Z,10.63
2023-04-01T00:08:44.198Z,10.62
2023-04-01T00:11:12.691Z,10.55
2023-04-01T00:13:41.424Z,10.50
2023-04-01T00:16:19.697Z,10.54
2023-04-01T00:18:51.263Z,10.57
2023-04-01T00:21:21.534Z,10.68
2023-04-01T00:23:51.882Z,10.77
2023-04-01T00:26:22.941Z,10.63
2023-04-01T00:28:52.107Z,10.60
2023-04-01T00:31:21.041Z,10.73
2023-04-01T00:33:49.398Z,10.87
2023-04-01T00:36:20.660Z,10.93
2023-04-01T00:38:49.173Z,10.88
2023-04-01T00:41:19.330Z,10.89
2023-04-01T00:43:49.936Z,10.95
2023-04-01T00:46:19.019Z,11.10
2023-04-01T00:48:55.525Z,11.13
2023-04-01T00:51:28.860Z,11.13
2023-04-01T00:54:00.361Z,11.11
2023-04-01T00:56:36.734Z,11.08
2023-04-01T00:59:14.386Z,11.14
2023-04-01T01:01:42.956Z,11.25
2023-04-01T01:04:31.480Z,11.36
2023-04-01T01:07:33.635Z,11.37
2023-04-01T01:10:31.303Z,11.44
2023-04-01T01:13:02.340Z,11.52
2023-04-01T01:15:39.214Z,11.59
2023-04-01T01:18:32.164Z,11.46
2023-04-01T01:21:43.168Z,11.15
2023-04-01T01:24:26.700Z,10.89
2023-04-01T01:27:05.424Z,10.96
2023-04-01T01:30:07.975Z,10.91
2023-04-01T01:32:51.388Z,11.08
2023-04-01T01:35:28.797Z,11.13
2023-04-01T01:38:19.468Z,10.93
2023-04-01T01:40:58.724Z,10.74
2023-04-01T01:43:39.906Z,10.75
2023-04-01T01:46:13.841Z,10.68
2023-04-01T01:48:44.747Z,10.69
2023-04-01T01:51:12.974Z,10.76
2023-04-01T01:53:41.714Z,10.78
2023-04-01T01:56:11.684Z,10.73
2023-04-01T01:58:44.217Z,10.44
2023-04-01T02:01:19.073Z,10.18
2023-04-01T02:03:49.200Z,10.05
2023-04-01T02:06:20.538Z,10.10
2023-04-01T02:08:57.063Z,10.09
2023-04-01T02:11:45.306Z,9.96
2023-04-01T02:14:19.113Z,9.86
2023-04-01T02:17:06.799Z,9.78
2023-04-01T02:19:51.400Z,9.59
2023-04-01T02:22:24.833Z,9.49
2023-04-01T02:25:00.443Z,9.53
2023-04-01T02:27:29.480Z,9.47
2023-04-01T02:29:59.060Z,9.50
2023-04-01T02:32:29.515Z,9.50
2023-04-01T02:34:58.250Z,9.41
2023-04-01T02:37:26.634Z,9.48
2023-04-01T02:39:54.964Z,9.69
2023-04-01T02:42:22.971Z,9.87
2023-04-01T02:44:50.982Z,10.00
2023-04-01T02:47:19.117Z,10.25
2023-04-01T02:49:47.707Z,10.20
2023-04-01T02:52:16.076Z,10.17
2023-04-01T02:54:44.169Z,10.27
2023-04-01T02:57:12.498Z,10.46
2023-04-01T02:59:41.104Z,10.58
2023-04-01T03:02:09.523Z,10.40
2023-04-01T03:04:37.766Z,10.31
2023-04-01T03:07:05.896Z,10.36
2023-04-01T03:09:33.873Z,10.22
2023-04-01T03:12:02.493Z,10.16
2023-04-01T03:14:31.305Z,10.29
2023-04-01T03:16:59.508Z,10.44
2023-04-01T03:19:27.710Z,10.70
2023-04-01T03:21:56.261Z,10.96
2023-04-01T03:24:24.476Z,11.21
2023-04-01T03:26:52.548Z,11.44
2023-04-01T03:29:21.036Z,11.64
2023-04-01T03:31:49.097Z,11.80
2023-04-01T03:34:17.485Z,11.95
2023-04-01T03:36:46.313Z,11.93
2023-04-01T03:39:14.459Z,11.83
2023-04-01T03:41:42.734Z,11.77
2023-04-01T03:44:10.949Z,11.67
2023-04-01T03:46:40.281Z,11.68
2023-04-01T03:49:13.184Z,11.74
2023-04-01T03:51:43.942Z,11.75
2023-04-01T03:54:12.689Z,11.70
2023-04-01T03:56:40.961Z,11.69
2023-04-01T03:59:09.981Z,11.71
2023-04-01T04:01:38.386Z,11.77
2023-04-01T04:04:06.861Z,11.79
2023-04-01T04:06:35.500Z,11.77
2023-04-01T04:09:03.779Z,11.73
2023-04-01T04:11:33.978Z,11.58
2023-04-01T04:14:03.216Z,11.35
2023-04-01T04:16:31.413Z,11.18
2023-04-01T04:19:01.516Z,10.88
2023-04-01T04:21:29.779Z,10.79
2023-04-01T04:24:00.103Z,10.71
2023-04-01T04:26:28.880Z,10.60
2023-04-01T04:29:01.782Z,10.55
2023-04-01T04:31:30.104Z,10.58
2023-04-01T04:34:02.213Z,10.49
2023-04-01T04:36:31.566Z,10.25
2023-04-01T04:39:03.000Z,10.06
2023-04-01T04:41:32.250Z,9.93
2023-04-01T04:44:00.412Z,9.94
2023-04-01T04:46:28.830Z,10.01
2023-04-01T04:49:02.491Z,10.17
2023-04-01T04:51:30.884Z,10.34
2023-04-01T04:53:59.495Z,10.49
2023-04-01T04:56:37.053Z,10.55
2023-04-01T04:59:08.310Z,10.63
2023-04-01T05:01:47.823Z,10.75
2023-04-01T05:04:16.258Z,10.89
2023-04-01T05:06:46.127Z,11.03
2023-04-01T05:09:14.458Z,11.14
2023-04-01T05:11:42.885Z,11.24
2023-04-01T05:14:16.370Z,11.24
2023-04-01T05:16:47.454Z,11.20
2023-04-01T05:19:15.648Z,11.23
2023-04-01T05:21:43.965Z,11.26
2023-04-01T05:24:12.443Z,11.25
2023-04-01T05:26:41.286Z,11.19
2023-04-01T05:29:09.512Z,11.15
2023-04-01T05:31:37.893Z,11.15
2023-04-01T05:34:06.227Z,11.18
2023-04-01T05:36:35.380Z,11.26
2023-04-01T05:39:04.401Z,11.30
2023-04-01T05:41:32.835Z,11.34
2023-04-01T05:44:01.317Z,11.35
2023-04-01T05:46:42.789Z,11.43
2023-04-01T05:49:19.197Z,11.52
2023-04-01T05:51:47.843Z,11.65
2023-04-01T05:54:16.013Z,11.70
2023-04-01T05:56:46.804Z,11.65
2023-04-01T05:59:16.462Z,11.75
2023-04-01T06:01:44.857Z,11.83
2023-04-01T06:04:18.632Z,11.87
2023-04-01T06:06:47.250Z,11.91
2023-04-01T06:09:19.307Z,11.93
2023-04-01T06:12:06.382Z,11.90
2023-04-01T06:14:58.437Z,11.78
2023-04-01T06:17:46.906Z,11.69
2023-04-01T06:20:26.973Z,11.77
2023-04-01T06:23:28.882Z,11.83
2023-04-01T06:26:00.070Z,11.92
2023-04-01T06:29:05.934Z,11.91
2023-04-01T06:31:55.841Z,11.88
2023-04-01T06:34:31.544Z,11.89
2023-04-01T06:37:31.892Z,11.97
2023-04-01T06:40:44.071Z,12.02
2023-04-01T06:43:38.918Z,12.12
2023-04-01T06:46:26.095Z,12.25
2023-04-01T06:49:41.773Z,12.32
2023-04-01T06:53:16.970Z,12.28
2023-04-01T06:56:09.582Z,12.35
2023-04-01T06:59:01.730Z,12.29
2023-04-01T07:01:46.075Z,12.35
2023-04-01T07:04:26.583Z,12.48
2023-04-01T07:07:01.484Z,12.68
2023-04-01T07:09:37.970Z,12.76
2023-04-01T07:12:58.608Z,12.70
2023-04-01T07:15:52.943Z,12.77
2023-04-01T07:18:33.925Z,12.83
2023-04-01T07:21:03.372Z,12.80
2023-04-01T07:23:43.631Z,12.84
2023-04-01T07:26:26.371Z,12.85
2023-04-01T07:29:12.763Z,12.85
2023-04-01T07:32:05.799Z,12.90
2023-04-01T07:34:49.252Z,12.87
2023-04-01T07:37:20.904Z,12.86
2023-04-01T07:40:01.462Z,12.81
2023-04-01T07:43:01.875Z,12.48
2023-04-01T07:45:54.292Z,12.16
2023-04-01T07:48:28.763Z,12.24
2023-04-01T07:51:08.762Z,12.38
2023-04-01T07:54:14.134Z,12.34
2023-04-01T07:56:45.846Z,12.28
2023-04-01T07:59:23.467Z,12.28
2023-04-01T08:02:26.565Z,12.07
2023-04-01T08:05:19.755Z,11.88
2023-04-01T08:07:59.908Z,11.96
2023-04-01T08:10:49.273Z,12.17
2023-04-01T08:14:02.995Z,12.38
2023-04-01T08:17:10.499Z,12.52
2023-04-01T08:20:00.675Z,12.67
2023-04-01T08:22:51.201Z,12.90
2023-04-01T08:25:30.342Z,12.99
2023-04-01T08:28:09.647Z,13.19
2023-04-01T08:30:45.297Z,13.27
2023-04-01T08:33:20.722Z,13.43
2023-04-01T08:36:00.378Z,13.65
2023-04-01T08:38:34.076Z,13.85
2023-04-01T08:41:17.409Z,14.05
2023-04-01T08:44:34.168Z,14.47
2023-04-01T08:47:21.439Z,14.73
2023-04-01T08:49:55.662Z,14.30
2023-04-01T08:52:52.560Z,13.81
2023-04-01T08:55:23.952Z,13.87
2023-04-01T08:58:23.484Z,14.39
2023-04-01T09:01:36.496Z,15.45
2023-04-01T09:04:09.414Z,16.43
2023-04-01T09:06:49.309Z,16.43
2023-04-01T09:09:39.193Z,15.69
2023-04-01T09:12:25.797Z,15.42
2023-04-01T09:14:55.920Z,15.68
2023-04-01T09:17:52.977Z,15.87
2023-04-01T09:20:21.654Z,16.04
2023-04-01T09:23:22.700Z,16.26
2023-04-01T09:25:59.990Z,16.28
2023-04-01T09:28:27.944Z,16.12
2023-04-01T09:31:13.493Z,16.16
2023-04-01T09:33:54.104Z,16.18
2023-04-01T09:36:54.534Z,16.29
2023-04-01T09:39:50.150Z,16.23
2023-04-01T09:42:40.960Z,16.52
2023-04-01T09:45:55.483Z,16.67
2023-04-01T09:48:59.629Z,16.71
2023-04-01T09:51:52.894Z,16.87
2023-04-01T09:54:32.737Z,17.03
2023-04-01T09:57:23.121Z,17.22
2023-04-01T10:00:04.537Z,17.21
2023-04-01T10:03:09.452Z,17.29
2023-04-01T10:06:10.307Z,17.59
2023-04-01T10:08:57.446Z,17.90
2023-04-01T10:11:59.307Z,18.10
2023-04-01T10:14:46.284Z,17.92
2023-04-01T10:17:29.655Z,17.40
2023-04-01T10:20:27.285Z,16.93
2023-04-01T10:23:29.675Z,16.44
2023-04-01T10:26:09.132Z,16.23
2023-04-01T10:28:46.474Z,16.12
2023-04-01T10:31:28.089Z,16.11
2023-04-01T10:34:08.739Z,16.03
2023-04-01T10:36:49.199Z,15.74
2023-04-01T10:39:59.445Z,15.61
2023-04-01T10:43:01.922Z,15.72
2023-04-01T10:46:17.764Z,15.85
2023-04-01T10:49:25.521Z,15.94
2023-04-01T10:52:43.661Z,15.92
2023-04-01T10:56:08.418Z,15.91
2023-04-01T10:59:28.677Z,16.03
2023-04-01T11:02:37.541Z,16.08
2023-04-01T11:05:42.823Z,16.01
2023-04-01T11:08:18.272Z,16.09
2023-04-01T11:10:49.179Z,16.12
2023-04-01T11:13:37.495Z,16.13
2023-04-01T11:16:43.225Z,16.12
2023-04-01T11:19:34.345Z,16.05
2023-04-01T11:22:13.750Z,16.11
2023-04-01T11:25:17.873Z,16.18
2023-04-01T11:28:59.725Z,16.21
2023-04-01T11:31:47.650Z,16.21
2023-04-01T11:34:41.171Z,16.20
2023-04-01T11:37:37.414Z,16.24
2023-04-01T11:40:57.183Z,16.26
2023-04-01T11:44:21.373Z,16.26
2023-04-01T11:47:19.853Z,16.35
2023-04-01T11:50:17.005Z,16.52
2023-04-01T11:53:18.982Z,16.56
2023-04-01T11:56:18.376Z,16.58
2023-04-01T11:59:13.816Z,16.69
2023-04-01T12:02:01.013Z,16.61
2023-04-01T12:05:09.661Z,16.61
2023-04-01T12:08:04.530Z,16.60
2023-04-01T12:10:35.977Z,16.64
2023-04-01T12:13:16.136Z,16.57
2023-04-01T12:15:59.076Z,16.40
2023-04-01T12:19:16.384Z,16.40
2023-04-01T12:22:01.365Z,16.36
2023-04-01T12:24:49.197Z,16.33
2023-04-01T12:27:29.159Z,16.44
2023-04-01T12:30:24.334Z,16.40
2023-04-01T12:32:55.184Z,16.33
2023-04-01T12:35:54.614Z,16.30
2023-04-01T12:38:40.471Z,16.26
2023-04-01T12:41:38.639Z,16.34
2023-04-01T12:44:29.074Z,16.46
2023-04-01T12:47:35.655Z,16.36
2023-04-01T12:50:25.392Z,16.26
2023-04-01T12:53:04.947Z,16.19
2023-04-01T12:55:40.473Z,16.15
2023-04-01T12:58:08.503Z,16.19
2023-04-01T13:01:15.792Z,16.22
2023-04-01T13:04:13.472Z,16.25
2023-04-01T13:07:20.473Z,16.25
2023-04-01T13:10:21.834Z,16.37
2023-04-01T13:13:05.246Z,16.59
2023-04-01T13:15:47.521Z,16.83
2023-04-01T13:18:25.678Z,16.90
2023-04-01T13:21:02.668Z,16.90
2023-04-01T13:23:49.262Z,17.00
2023-04-01T13:26:35.656Z,17.03
2023-04-01T13:29:19.219Z,17.14
2023-04-01T13:32:13.744Z,17.24
2023-04-01T13:35:07.772Z,17.45
2023-04-01T13:37:54.881Z,17.78
2023-04-01T13:40:55.720Z,17.98
2023-04-01T13:43:42.929Z,18.02
2023-04-01T13:46:21.220Z,17.82
2023-04-01T13:49:06.943Z,17.23
2023-04-01T13:51:53.844Z,17.09
2023-04-01T13:55:01.047Z,17.05
2023-04-01T13:57:56.046Z,17.14
2023-04-01T14:00:30.391Z,17.14
2023-04-01T14:03:42.813Z,17.10
2023-04-01T14:06:21.146Z,17.23
2023-04-01T14:09:27.545Z,17.34
2023-04-01T14:11:55.916Z,17.42
2023-04-01T14:15:01.569Z,17.49
2023-04-01T14:17:45.580Z,17.32
2023-04-01T14:20:34.762Z,17.20
2023-04-01T14:23:30.883Z,17.16
2023-04-01T14:26:04.718Z,17.03
2023-04-01T14:28:54.298Z,16.98
2023-04-01T14:31:51.983Z,16.95
2023-04-01T14:34:31.812Z,16.94
2023-04-01T14:37:21.285Z,16.90
2023-04-01T14:40:07.576Z,16.87
2023-04-01T14:42:53.563Z,16.79
2023-04-01T14:45:59.119Z,16.73
2023-04-01T14:48:35.381Z,16.62
2023-04-01T14:51:11.844Z,16.52
2023-04-01T14:53:52.715Z,16.37
2023-04-01T14:56:38.196Z,16.25
2023-04-01T14:59:26.849Z,16.19
2023-04-01T15:02:19.797Z,16.16
2023-04-01T15:04:55.707Z,16.14
2023-04-01T15:07:48.710Z,16.21
2023-04-01T15:10:38.388Z,16.17
2023-04-01T15:13:21.741Z,16.15
2023-04-01T15:16:18.725Z,15.96
2023-04-01T15:19:08.338Z,15.66
2023-04-01T15:22:11.968Z,15.47
2023-04-01T15:24:58.041Z,15.35
2023-04-01T15:27:35.636Z,15.32
2023-04-01T15:30:18.273Z,15.27
2023-04-01T15:33:01.363Z,15.17
2023-04-01T15:35:49.261Z,15.17
2023-04-01T15:38:19.921Z,14.95
2023-04-01T15:40:55.998Z,14.62
2023-04-01T15:43:43.223Z,14.31
2023-04-01T15:46:36.113Z,14.26
2023-04-01T15:49:07.108Z,14.08
2023-04-01T15:52:06.776Z,13.95
2023-04-01T15:54:46.975Z,13.91
2023-04-01T15:57:31.378Z,13.85
2023-04-01T16:00:23.138Z,13.67
2023-04-01T16:03:01.967Z,13.58
2023-04-01T16:05:53.182Z,13.58
2023-04-01T16:08:44.400Z,13.59
2023-04-01T16:11:35.243Z,13.47
2023-04-01T16:14:18.260Z,13.24
2023-04-01T16:17:12.695Z,13.04
2023-04-01T16:19:51.556Z,12.92
2023-04-01T16:22:32.056Z,12.87
2023-04-01T16:25:19.186Z,12.74
2023-04-01T16:27:57.730Z,12.49
2023-04-01T16:30:50.066Z,12.34
2023-04-01T16:33:35.756Z,12.26
2023-04-01T16:36:15.384Z,12.16
2023-04-01T16:39:02.202Z,12.18
2023-04-01T16:41:33.188Z,12.37
2023-04-01T16:44:12.170Z,12.64
2023-04-01T16:46:47.515Z,12.90
2023-04-01T16:49:43.523Z,13.08
2023-04-01T16:52:11.862Z,13.21
2023-04-01T16:54:59.654Z,13.45
2023-04-01T16:57:36.944Z,13.56
2023-04-01T17:00:17.422Z,13.50
2023-04-01T17:03:08.646Z,13.41
2023-04-01T17:05:42.922Z,13.15
2023-04-01T17:08:31.277Z,12.95
2023-04-01T17:11:22.097Z,12.89
2023-04-01T17:14:08.476Z,12.98
2023-04-01T17:16:55.412Z,13.07
2023-04-01T17:19:51.025Z,13.18
2023-04-01T17:22:33.161Z,13.24
2023-04-01T17:25:05.786Z,13.33
2023-04-01T17:27:43.086Z,13.38
2023-04-01T17:30:11.676Z,13.45
2023-04-01T17:33:00.338Z,13.63
2023-04-01T17:35:34.223Z,13.92
2023-04-01T17:38:17.642Z,14.16
2023-04-01T17:41:16.446Z,14.17
2023-04-01T17:43:53.341Z,14.06
2023-04-01T17:46:36.566Z,13.93
2023-04-01T17:49:42.503Z,13.96
2023-04-01T17:52:22.960Z,13.82
2023-04-01T17:55:41.572Z,13.77
2023-04-01T17:58:12.808Z,13.91
2023-04-01T18:01:08.884Z,14.01
2023-04-01T18:04:08.704Z,13.96
2023-04-01T18:06:55.089Z,13.93
2023-04-01T18:09:44.961Z,13.90
2023-04-01T18:12:34.254Z,13.81
2023-04-01T18:15:28.929Z,13.69
2023-04-01T18:18:59.716Z,13.57
2023-04-01T18:21:53.393Z,13.45
2023-04-01T18:24:28.595Z,13.44
2023-04-01T18:27:19.169Z,13.42
2023-04-01T18:29:54.182Z,13.29
2023-04-01T18:32:37.945Z,13.18
2023-04-01T18:35:44.179Z,13.08
2023-04-01T18:38:30.556Z,13.06
2023-04-01T18:41:17.332Z,13.06
2023-04-01T18:44:01.354Z,13.20
2023-04-01T18:47:01.315Z,13.28
2023-04-01T18:49:55.416Z,13.30
2023-04-01T18:52:29.595Z,13.26
2023-04-01T18:55:04.114Z,13.25
2023-04-01T18:57:51.441Z,13.19
2023-04-01T19:00:44.262Z,13.15
2023-04-01T19:03:29.055Z,13.14
2023-04-01T19:06:03.035Z,13.12
2023-04-01T19:08:41.510Z,13.01
2023-04-01T19:11:18.034Z,12.99
2023-04-01T19:14:31.269Z,12.89
2023-04-01T19:17:17.198Z,12.80
2023-04-01T19:19:54.671Z,12.71
2023-04-01T19:22:51.431Z,12.64
2023-04-01T19:25:28.496Z,12.48
2023-04-01T19:28:21.054Z,12.38
2023-04-01T19:31:05.368Z,12.34
2023-04-01T19:34:10.918Z,12.37
2023-04-01T19:36:51.477Z,12.33
2023-04-01T19:39:38.363Z,12.30
2023-04-01T19:42:28.314Z,12.35
2023-04-01T19:45:15.041Z,12.48
2023-04-01T19:48:07.244Z,12.54
2023-04-01T19:50:43.996Z,12.40
2023-04-01T19:53:19.167Z,12.26
2023-04-01T19:55:57.273Z,12.07
2023-04-01T19:58:34.523Z,12.00
2023-04-01T20:01:05.877Z,12.02
2023-04-01T20:04:03.224Z,12.01
2023-04-01T20:06:37.131Z,11.97
2023-04-01T20:09:27.461Z,12.05
2023-04-01T20:12:06.490Z,12.13
2023-04-01T20:14:45.734Z,12.24
2023-04-01T20:17:13.774Z,12.29
2023-04-01T20:19:54.524Z,12.34
2023-04-01T20:22:38.184Z,12.32
2023-04-01T20:25:47.097Z,12.25
2023-04-01T20:28:18.203Z,12.16
2023-04-01T20:31:08.175Z,12.08
2023-04-01T20:33:36.185Z,12.05
2023-04-01T20:36:34.260Z,12.05
2023-04-01T20:39:14.112Z,12.06
2023-04-01T20:42:04.305Z,12.12
2023-04-01T20:44:43.645Z,12.08
2023-04-01T20:47:47.481Z,12.00
2023-04-01T20:50:36.507Z,11.98
2023-04-01T20:53:17.986Z,11.99
2023-04-01T20:55:58.349Z,12.00
2023-04-01T20:59:26.737Z,11.93
2023-04-01T21:02:16.200Z,11.92
2023-04-01T21:05:11.759Z,12.02
2023-04-01T21:07:52.792Z,12.07
2023-04-01T21:11:02.446Z,12.11
2023-04-01T21:13:52.518Z,12.16
2023-04-01T21:16:54.181Z,12.32
2023-04-01T21:19:58.195Z,12.41
2023-04-01T21:22:47.969Z,12.39
2023-04-01T21:25:23.734Z,12.43
2023-04-01T21:28:16.263Z,12.44
2023-04-01T21:31:09.364Z,12.43
2023-04-01T21:33:55.616Z,12.40
2023-04-01T21:36:37.524Z,12.48
2023-04-01T21:39:08.382Z,12.50
2023-04-01T21:42:02.241Z,12.47
2023-04-01T21:44:39.002Z,12.53
2023-04-01T21:47:41.232Z,12.54
2023-04-01T21:50:30.231Z,12.63
2023-04-01T21:53:27.961Z,12.75
2023-04-01T21:56:29.674Z,12.86
2023-04-01T21:59:23.541Z,12.94
2023-04-01T22:02:11.768Z,12.85
2023-04-01T22:04:54.180Z,12.67
2023-04-01T22:07:30.976Z,12.49
2023-04-01T22:10:17.592Z,12.31
2023-04-01T22:13:06.528Z,12.09
2023-04-01T22:15:44.825Z,11.96
2023-04-01T22:18:23.984Z,11.87
2023-04-01T22:21:22.483Z,11.84
2023-04-01T22:23:53.696Z,11.85
2023-04-01T22:26:32.709Z,11.82
2023-04-01T22:29:16.103Z,11.76
2023-04-01T22:32:06.601Z,11.72
2023-04-01T22:34:49.374Z,11.85
2023-04-01T22:37:41.919Z,12.04
2023-04-01T22:40:33.959Z,12.17
2023-04-01T22:43:11.748Z,12.17
2023-04-01T22:45:39.865Z,12.25
2023-04-01T22:48:22.514Z,12.30
2023-04-01T22:50:53.657Z,12.31
2023-04-01T22:53:21.659Z,12.20
2023-04-01T22:55:53.775Z,12.11
2023-04-01T22:58:30.483Z,11.99
2023-04-01T23:01:04.620Z,11.90
2023-04-01T23:03:36.746Z,11.85
2023-04-01T23:06:05.887Z,11.80
2023-04-01T23:08:49.498Z,11.82
2023-04-01T23:11:33.024Z,11.77
2023-04-01T23:14:30.169Z,11.85
2023-04-01T23:17:04.405Z,11.94
2023-04-01T23:19:58.782Z,11.93
2023-04-01T23:22:36.056Z,11.89
2023-04-01T23:25:16.484Z,11.82
2023-04-01T23:28:06.010Z,11.85
2023-04-01T23:30:40.051Z,11.78
2023-04-01T23:33:32.444Z,11.73
2023-04-01T23:36:06.568Z,11.65
2023-04-01T23:38:42.727Z,11.50
2023-04-01T23:41:21.575Z,11.43
2023-04-01T23:44:13.473Z,11.30
2023-04-01T23:46:46.027Z,11.17
2023-04-01T23:49:30.259Z,11.11
2023-04-01T23:52:18.220Z,10.97
2023-04-01T23:54:54.996Z,10.91
2023-04-01T23:57:28.588Z,10.84
